createdAt,value
2022-11-26T00:03:29.297Z,6228.00
2022-11-26T00:08:36.466Z,6192.00
2022-11-26T00:13:43.664Z,6192.00
2022-11-26T00:18:50.855Z,6156.00
2022-11-26T00:23:58.093Z,6048.00
2022-11-26T00:29:05.267Z,6120.00
2022-11-26T00:34:12.534Z,6048.00
2022-11-26T00:39:19.702Z,6120.00
2022-11-26T00:44:26.930Z,6156.00
2022-11-26T00:49:34.128Z,6156.00
2022-11-26T00:54:41.316Z,6156.00
2022-11-26T00:59:48.429Z,6120.00
2022-11-26T01:04:55.705Z,6084.00
2022-11-26T01:10:02.941Z,6192.00
2022-11-26T01:15:10.128Z,6192.00
2022-11-26T01:20:19.553Z,6192.00
2022-11-26T01:25:24.581Z,6336.00
2022-11-26T01:30:31.774Z,6192.00
2022-11-26T01:35:39.026Z,6156.00
2022-11-26T01:40:46.267Z,6192.00
2022-11-26T01:45:53.530Z,6264.00
2022-11-26T01:51:00.726Z,-720.00
2022-11-26T01:56:08.027Z,-684.00
2022-11-26T02:01:15.488Z,-684.00
2022-11-26T02:06:22.617Z,-684.00
2022-11-26T02:11:29.851Z,-720.00
2022-11-26T02:16:37.097Z,-684.00
2022-11-26T02:21:44.302Z,-684.00
2022-11-26T02:26:51.559Z,-720.00
2022-11-26T02:31:58.856Z,-720.00
2022-11-26T02:37:06.064Z,-720.00
2022-11-26T02:42:13.401Z,-684.00
2022-11-26T02:47:20.725Z,-720.00
2022-11-26T02:52:27.925Z,-720.00
2022-11-26T02:57:35.157Z,-720.00
2022-11-26T03:02:42.337Z,-720.00
2022-11-26T03:07:49.654Z,-720.00
2022-11-26T03:12:56.770Z,-720.00
2022-11-26T03:18:04.010Z,-720.00
2022-11-26T03:23:11.273Z,-684.00
2022-11-26T03:28:18.516Z,-720.00
2022-11-26T03:33:25.728Z,-720.00
2022-11-26T03:38:33.076Z,-684.00
2022-11-26T03:43:40.316Z,-720.00
2022-11-26T03:48:47.489Z,-720.00
2022-11-26T03:53:54.709Z,-720.00
2022-11-26T03:59:01.993Z,-684.00
2022-11-26T04:04:09.205Z,-720.00
2022-11-26T04:09:16.416Z,-720.00
2022-11-26T04:14:23.707Z,-684.00
2022-11-26T04:19:30.818Z,-684.00
2022-11-26T04:24:38.297Z,-684.00
2022-11-26T04:29:45.257Z,-720.00
2022-11-26T04:34:52.453Z,-720.00
2022-11-26T04:39:59.648Z,-720.00
2022-11-26T04:45:06.909Z,-684.00
2022-11-26T04:50:14.755Z,-720.00
2022-11-26T04:55:21.986Z,-720.00
2022-11-26T05:00:29.226Z,-720.00
2022-11-26T05:05:36.385Z,-720.00
2022-11-26T05:10:43.575Z,-684.00
2022-11-26T05:15:50.828Z,-684.00
2022-11-26T05:20:58.033Z,-720.00
2022-11-26T05:26:05.222Z,-720.00
2022-11-26T05:31:12.573Z,-720.00
2022-11-26T05:36:19.831Z,-684.00
2022-11-26T05:41:27.016Z,-684.00
2022-11-26T05:46:34.249Z,-720.00
2022-11-26T05:51:41.426Z,-684.00
2022-11-26T05:56:48.621Z,-720.00
2022-11-26T06:01:55.934Z,-720.00
2022-11-26T06:07:03.089Z,-684.00
2022-11-26T06:12:10.252Z,-720.00
2022-11-26T06:17:17.478Z,-720.00
2022-11-26T06:22:24.651Z,-720.00
2022-11-26T06:27:31.849Z,-720.00
2022-11-26T06:32:39.063Z,-720.00
2022-11-26T06:37:46.226Z,-720.00
2022-11-26T06:42:53.499Z,-684.00
2022-11-26T06:48:00.730Z,-684.00
2022-11-26T06:53:07.927Z,-684.00
2022-11-26T06:58:15.233Z,-684.00
2022-11-26T07:03:25.465Z,-684.00
2022-11-26T07:08:29.740Z,-648.00
2022-11-26T07:13:37.770Z,-684.00
2022-11-26T07:18:44.956Z,-684.00
2022-11-26T07:23:52.162Z,-648.00
2022-11-26T07:28:59.380Z,-648.00
2022-11-26T07:34:06.733Z,-648.00
2022-11-26T07:39:13.861Z,-648.00
2022-11-26T07:44:21.082Z,-612.00
2022-11-26T07:49:28.292Z,-612.00
2022-11-26T07:54:35.879Z,-612.00
2022-11-26T07:59:42.746Z,-576.00
2022-11-26T08:04:50.021Z,-576.00
2022-11-26T08:09:57.213Z,-648.00
2022-11-26T08:15:04.422Z,-648.00
2022-11-26T08:20:13.036Z,-648.00
2022-11-26T08:25:20.235Z,10728.00
2022-11-26T08:30:27.452Z,10692.00
2022-11-26T08:36:04.869Z,12420.00
2022-11-26T08:40:41.872Z,12852.00
2022-11-26T08:45:49.389Z,13212.00
2022-11-26T08:50:56.620Z,12636.00
2022-11-26T08:56:03.858Z,12600.00
2022-11-26T09:01:11.157Z,12744.00
2022-11-26T09:06:18.317Z,12852.00
2022-11-26T09:11:25.545Z,12888.00
2022-11-26T09:16:32.805Z,12960.00
2022-11-26T09:21:40.528Z,13428.00
2022-11-26T09:26:47.683Z,13536.00
2022-11-26T09:32:22.072Z,13644.00
2022-11-26T09:37:02.144Z,13968.00
2022-11-26T09:42:09.318Z,14328.00
2022-11-26T09:47:16.476Z,14796.00
2022-11-26T09:52:23.762Z,14544.00
2022-11-26T09:57:30.972Z,13932.00
2022-11-26T10:02:38.320Z,13068.00
2022-11-26T10:07:45.613Z,15984.00
2022-11-26T10:13:17.481Z,17892.00
2022-11-26T10:17:59.919Z,18792.00
2022-11-26T10:23:07.155Z,19008.00
2022-11-26T10:28:14.379Z,19368.00
2022-11-26T10:33:21.570Z,18108.00
2022-11-26T10:38:28.801Z,16740.00
2022-11-26T10:43:36.025Z,17460.00
2022-11-26T10:48:43.188Z,16452.00
2022-11-26T10:53:50.438Z,15516.00
2022-11-26T10:58:57.612Z,15624.00
2022-11-26T11:04:08.957Z,15660.00
2022-11-26T11:09:11.993Z,15948.00
2022-11-26T11:14:19.207Z,16128.00
2022-11-26T11:19:26.359Z,16416.00
2022-11-26T11:24:33.543Z,16560.00
2022-11-26T11:29:40.961Z,16632.00
2022-11-26T11:34:48.232Z,17676.00
2022-11-26T11:39:55.460Z,17568.00
2022-11-26T11:45:02.618Z,19620.00
2022-11-26T11:50:09.861Z,18144.00
2022-11-26T11:55:17.063Z,16128.00
2022-11-26T12:00:24.225Z,15732.00
2022-11-26T12:05:31.506Z,13068.00
2022-11-26T12:10:38.712Z,13716.00
2022-11-26T12:15:45.907Z,15084.00
2022-11-26T12:20:53.111Z,14832.00
2022-11-26T12:26:00.299Z,15228.00
2022-11-26T12:31:07.543Z,21276.00
2022-11-26T12:36:14.717Z,18720.00
2022-11-26T12:41:21.917Z,17964.00
2022-11-26T12:46:29.401Z,15948.00
2022-11-26T12:51:36.609Z,14040.00
2022-11-26T12:56:43.849Z,11916.00
2022-11-26T13:01:51.054Z,11196.00
2022-11-26T13:06:58.168Z,11340.00
2022-11-26T13:12:05.364Z,11556.00
2022-11-26T13:17:12.574Z,11412.00
2022-11-26T13:22:19.824Z,11268.00
2022-11-26T13:27:26.999Z,11160.00
2022-11-26T13:32:34.150Z,11052.00
2022-11-26T13:37:41.359Z,10980.00
2022-11-26T13:42:48.561Z,10764.00
2022-11-26T13:47:55.762Z,10224.00
2022-11-26T13:53:03.023Z,9972.00
2022-11-26T13:58:10.219Z,9396.00
2022-11-26T14:03:17.575Z,9828.00
2022-11-26T14:08:24.822Z,9900.00
2022-11-26T14:13:32.075Z,9504.00
2022-11-26T14:18:39.389Z,9648.00
2022-11-26T14:23:46.647Z,9396.00
2022-11-26T14:28:53.854Z,9072.00
2022-11-26T14:34:01.009Z,8856.00
2022-11-26T14:39:08.200Z,8568.00
2022-11-26T14:44:15.410Z,8244.00
2022-11-26T14:49:22.591Z,7848.00
2022-11-26T14:54:29.794Z,7380.00
2022-11-26T14:59:37.065Z,6768.00
2022-11-26T15:04:44.249Z,6084.00
2022-11-26T15:09:51.497Z,5148.00
2022-11-26T15:14:58.730Z,4176.00
2022-11-26T15:20:05.974Z,3528.00
2022-11-26T15:25:13.191Z,2844.00
2022-11-26T15:30:20.391Z,1944.00
2022-11-26T15:35:27.612Z,1188.00
2022-11-26T15:40:34.846Z,612.00
2022-11-26T15:45:42.164Z,-216.00
2022-11-26T15:50:49.295Z,2016.00
2022-11-26T15:55:56.500Z,9936.00
2022-11-26T16:01:03.844Z,9432.00
2022-11-26T16:06:10.901Z,9288.00
2022-11-26T16:11:18.141Z,9432.00
2022-11-26T16:16:25.748Z,9756.00
2022-11-26T16:21:32.923Z,11052.00
2022-11-26T16:26:40.441Z,11232.00
2022-11-26T16:31:47.794Z,10584.00
2022-11-26T16:36:54.974Z,10512.00
2022-11-26T16:42:02.360Z,10800.00
2022-11-26T16:47:10.001Z,10800.00
2022-11-26T16:52:17.354Z,10368.00
2022-11-26T16:57:24.793Z,10656.00
2022-11-26T17:02:32.275Z,9396.00
2022-11-26T17:07:39.424Z,10440.00
2022-11-26T17:12:46.827Z,10044.00
2022-11-26T17:17:54.561Z,9900.00
2022-11-26T17:23:01.912Z,9792.00
2022-11-26T17:28:09.150Z,9684.00
2022-11-26T17:33:16.694Z,8892.00
2022-11-26T17:38:24.211Z,9036.00
2022-11-26T17:43:31.508Z,8532.00
2022-11-26T17:48:38.823Z,8568.00
2022-11-26T17:53:45.965Z,8532.00
2022-11-26T17:58:53.149Z,8676.00
2022-11-26T18:04:00.435Z,8640.00
2022-11-26T18:09:07.601Z,8784.00
2022-11-26T18:14:14.842Z,8748.00
2022-11-26T18:19:22.183Z,10080.00
2022-11-26T18:24:29.628Z,9792.00
2022-11-26T18:29:37.337Z,9036.00
2022-11-26T18:34:44.251Z,8928.00
2022-11-26T18:39:51.757Z,8676.00
2022-11-26T18:44:59.126Z,8856.00
2022-11-26T18:50:06.392Z,9072.00
2022-11-26T18:55:13.885Z,8964.00
2022-11-26T19:00:21.503Z,8964.00
2022-11-26T19:05:30.591Z,8964.00
2022-11-26T19:10:38.159Z,8892.00
2022-11-26T19:15:45.553Z,9072.00
2022-11-26T19:20:53.126Z,8892.00
2022-11-26T19:26:00.798Z,9036.00
2022-11-26T19:31:08.448Z,8604.00
2022-11-26T19:36:16.983Z,8604.00
2022-11-26T19:41:25.989Z,9108.00
2022-11-26T19:46:32.249Z,8964.00
2022-11-26T19:51:40.376Z,9036.00
2022-11-26T19:56:47.714Z,9072.00
2022-11-26T20:01:55.433Z,9000.00
2022-11-26T20:07:02.968Z,9000.00
2022-11-26T20:12:10.559Z,9108.00
2022-11-26T20:17:18.325Z,9036.00
2022-11-26T20:22:28.117Z,9036.00
2022-11-26T20:27:33.504Z,8640.00
2022-11-26T20:32:41.227Z,9036.00
2022-11-26T20:37:48.869Z,9180.00
2022-11-26T20:42:56.345Z,9108.00
2022-11-26T20:48:03.959Z,8928.00
2022-11-26T20:53:11.607Z,9144.00
2022-11-26T20:58:19.195Z,9180.00
2022-11-26T21:03:26.562Z,9108.00
2022-11-26T21:08:33.766Z,9144.00
2022-11-26T21:13:40.902Z,9072.00
2022-11-26T21:18:48.049Z,9180.00
2022-11-26T21:23:55.547Z,9000.00
2022-11-26T21:29:03.030Z,9144.00
2022-11-26T21:34:10.364Z,9108.00
2022-11-26T21:39:17.586Z,9144.00
2022-11-26T21:44:25.492Z,9324.00
2022-11-26T21:49:32.576Z,9216.00
2022-11-26T21:54:39.792Z,9144.00
2022-11-26T21:59:47.174Z,9144.00
2022-11-26T22:04:54.441Z,9144.00
2022-11-26T22:10:04.630Z,9180.00
2022-11-26T22:15:11.767Z,9252.00
2022-11-26T22:20:19.017Z,9180.00
2022-11-26T22:25:26.278Z,9036.00
2022-11-26T22:30:33.488Z,8964.00
2022-11-26T22:35:40.690Z,8928.00
2022-11-26T22:40:47.962Z,8928.00
2022-11-26T22:45:55.257Z,8928.00
2022-11-26T22:51:02.430Z,9036.00
2022-11-26T22:56:09.641Z,8964.00
2022-11-26T23:01:17.543Z,9036.00
2022-11-26T23:06:24.734Z,8892.00
2022-11-26T23:11:32.106Z,9108.00
2022-11-26T23:16:39.364Z,9072.00
2022-11-26T23:21:46.452Z,8964.00
2022-11-26T23:26:53.623Z,9036.00
2022-11-26T23:32:00.901Z,9072.00
2022-11-26T23:37:08.072Z,8964.00
2022-11-26T23:42:15.315Z,9036.00
2022-11-26T23:47:22.505Z,9036.00
2022-11-26T23:52:29.703Z,9108.00
2022-11-26T23:57:36.915Z,9000.00
